Megan T Miller — WCW9003 — position and weather

sailwx.info

Track history (hours):
 
Tides and Currents Weather Stations Pressure Air Temp Water Temp Dewpoint Dewpoint Depression Visibility Wind Speed Wind Dir Waves Ship Positions

Megan T Miller

Owner: MILLER MARINE SERVICES INC, PORT JEFFERSON, NY. More information available from US FCC via Universal Licensing System and Coast Guard Vessel Documentation Center.

Last reported at 2016-Sep-11 16:27 UTC. Time now 2016-Sep-30 22:03 UTC.
Position N 40°46' W 073°57'.
Warning: this ship's position is 19 days out of date.

Length 18 m; draft 3 m.

MMSI: 338104509.

Date/timePositionNaut miles runAvg speedWind from/ knotsBaromVisibWave heightAir tempDewpointWater temp
2016-Sep-11 16:27N 40°46' W 073°57'7 8.2
2016-Sep-11 15:33N 40°40' W 074°03'3 2.4
2016-Sep-11 14:17N 40°39' W 074°07'1 1.5
2016-Sep-11 13:33N 40°39' W 074°05'6 5.9
2016-Sep-11 12:33N 40°34' W 074°01'43 7.9
2016-Sep-11 07:06N 39°51' W 073°57'289 9.1
2016-Sep-09 23:17N 35°10' W 075°24'60 7.7
2016-Sep-09 15:28N 34°32' W 076°20'236 9.0
2016-Sep-08 13:11N 32°20' W 080°14'6 9.3
2016-Sep-08 12:33N 32°15' W 080°19'13 9.3
2016-Sep-08 11:11N 32°06' W 080°29'6 9.4
2016-Sep-08 10:32N 32°01' W 080°33'9 9.3
2016-Sep-08 09:33N 31°53' W 080°38'  
Track history (hours):
 
Tides and Currents Weather Stations Pressure Air Temp Water Temp Dewpoint Dewpoint Depression Visibility Wind Speed Wind Dir Waves Ship Positions

Megan T Miller

Owner: MILLER MARINE SERVICES INC, PORT JEFFERSON, NY. More information available from US FCC via Universal Licensing System and Coast Guard Vessel Documentation Center.

Last reported at 2016-Sep-11 16:27 UTC. Time now 2016-Sep-30 22:03 UTC.
Position N 40°46' W 073°57'.
Warning: this ship's position is 19 days out of date.

Length 18 m; draft 3 m.

MMSI: 338104509.

Date/timePositionNaut miles runAvg speedWind from/ knotsBaromVisibWave heightAir tempDewpointWater temp
2016-Sep-11 16:27N 40°46' W 073°57'7 8.2
2016-Sep-11 15:33N 40°40' W 074°03'3 2.4
2016-Sep-11 14:17N 40°39' W 074°07'1 1.5
2016-Sep-11 13:33N 40°39' W 074°05'6 5.9
2016-Sep-11 12:33N 40°34' W 074°01'43 7.9
2016-Sep-11 07:06N 39°51' W 073°57'289 9.1
2016-Sep-09 23:17N 35°10' W 075°24'60 7.7
2016-Sep-09 15:28N 34°32' W 076°20'236 9.0
2016-Sep-08 13:11N 32°20' W 080°14'6 9.3
2016-Sep-08 12:33N 32°15' W 080°19'13 9.3
2016-Sep-08 11:11N 32°06' W 080°29'6 9.4
2016-Sep-08 10:32N 32°01' W 080°33'9 9.3
2016-Sep-08 09:33N 31°53' W 080°38'  

Dump ship's entire track history